Time;durP1;ratioP1;P1;durP2;ratioP2;P2;SDS_P1;SDS_P2;PMS_P1;PMS_P2;Temp;Humidity;BMP_temperature;BMP_pressure;BME280_temperature;BME280_humidity;BME280_pressure;Samples;Min_cycle;Max_cycle;Signal;HPM_P1;HPM_P2
2022/06/18 00:00:57;;;;;;;21.60;6.00;;;;;;;32.30;37.14;99480.84;5014774;28;20025;-87
2022/06/18 00:03:24;;;;;;;17.70;6.03;;;;;;;32.28;37.02;99486.41;5016010;28;20501;-87
2022/06/18 00:05:54;;;;;;;19.13;6.38;;;;;;;32.26;36.94;99482.19;5015950;28;20248;-86
2022/06/18 00:08:29;;;;;;;21.65;6.38;;;;;;;32.26;37.35;99479.47;5014624;28;20470;-86
2022/06/18 00:13:48;;;;;;;20.98;6.63;;;;;;;32.26;37.54;99490.28;5016756;28;20036;-87
2022/06/18 00:16:22;;;;;;;21.88;6.32;;;;;;;32.25;37.28;99485.91;5016269;28;20064;-86
2022/06/18 00:18:49;;;;;;;22.42;6.28;;;;;;;32.23;37.56;99483.38;5016369;28;20030;-85
2022/06/18 00:21:22;;;;;;;22.15;6.25;;;;;;;32.20;37.42;99477.47;5016506;28;20037;-86
2022/06/18 00:23:52;;;;;;;22.33;6.78;;;;;;;32.18;37.61;99479.47;5016172;28;20040;-86
2022/06/18 00:26:18;;;;;;;20.17;6.32;;;;;;;32.17;37.90;99489.44;5016956;28;20037;-86
2022/06/18 00:28:45;;;;;;;17.05;5.63;;;;;;;32.15;38.21;99481.50;5015795;28;20118;-87
2022/06/18 00:31:11;;;;;;;19.02;6.05;;;;;;;32.11;38.60;99474.72;5015263;28;20179;-87
2022/06/18 00:33:40;;;;;;;21.38;5.68;;;;;;;32.13;38.52;99488.06;5014176;28;20033;-87
2022/06/18 00:36:13;;;;;;;21.00;5.57;;;;;;;32.06;38.72;99471.72;5014194;28;20026;-87
2022/06/18 00:38:43;;;;;;;18.08;5.40;;;;;;;32.05;38.89;99470.00;5015130;28;20077;-87
2022/06/18 00:41:15;;;;;;;17.25;5.45;;;;;;;31.98;39.17;99464.44;5016953;28;20032;-87
2022/06/18 00:43:53;;;;;;;18.35;5.47;;;;;;;31.94;39.77;99473.88;5018977;28;20057;-87
2022/06/18 00:46:55;;;;;;;18.63;5.47;;;;;;;31.91;39.75;99468.84;5022090;28;20026;-84
2022/06/18 00:49:25;;;;;;;15.65;5.68;;;;;;;31.90;39.73;99463.59;5023207;28;20061;-86
2022/06/18 00:52:08;;;;;;;22.48;5.50;;;;;;;31.81;39.60;99468.94;5021302;28;20057;-86
2022/06/18 00:54:54;;;;;;;19.27;6.10;;;;;;;31.78;39.33;99471.97;5016308;28;20060;-87
2022/06/18 00:57:49;;;;;;;24.45;6.15;;;;;;;31.74;39.00;99467.91;5018039;28;20050;-87
2022/06/18 01:00:20;;;;;;;21.45;5.95;;;;;;;31.66;38.73;99462.50;5018593;28;20040;-87
2022/06/18 01:02:48;;;;;;;17.50;5.63;;;;;;;31.63;38.34;99454.72;5017095;28;20040;-86
2022/06/18 01:05:26;;;;;;;23.65;6.32;;;;;;;31.59;38.30;99449.69;5018098;28;20026;-87
2022/06/18 01:08:10;;;;;;;25.50;6.63;;;;;;;31.53;38.04;99450.34;5017830;28;20037;-86
2022/06/18 01:10:41;;;;;;;29.23;6.45;;;;;;;31.49;37.86;99454.34;5016557;28;20026;-86
2022/06/18 01:13:11;;;;;;;22.30;5.90;;;;;;;31.47;38.07;99445.59;5017830;28;20440;-87
2022/06/18 01:15:39;;;;;;;18.73;6.05;;;;;;;31.43;37.87;99446.91;5016581;28;20471;-86
2022/06/18 01:18:07;;;;;;;21.50;5.75;;;;;;;31.38;38.01;99441.16;5017844;28;20506;-85
2022/06/18 01:21:05;;;;;;;21.13;6.05;;;;;;;31.26;38.58;99443.28;5017152;28;20033;-86
2022/06/18 01:23:52;;;;;;;24.33;5.53;;;;;;;31.22;39.01;99434.66;5016838;28;20179;-87
2022/06/18 01:26:22;;;;;;;18.40;5.53;;;;;;;31.13;39.70;99427.56;5017172;28;20378;-86
2022/06/18 01:28:48;;;;;;;27.25;6.72;;;;;;;31.12;39.89;99425.88;5018559;28;20030;-87
2022/06/18 01:31:14;;;;;;;18.02;6.30;;;;;;;31.11;39.82;99430.44;5019427;28;20036;-87
2022/06/18 01:33:40;;;;;;;21.38;5.70;;;;;;;31.07;39.99;99423.66;5019504;28;20382;-90
2022/06/18 01:36:09;;;;;;;18.45;5.38;;;;;;;30.92;40.07;99415.34;5019118;28;20153;-87
2022/06/18 01:38:45;;;;;;;21.17;5.70;;;;;;;30.80;39.96;99421.00;5026874;28;20033;-88
2022/06/18 01:41:51;;;;;;;21.95;5.85;;;;;;;30.79;39.59;99415.78;5021113;28;20534;-88
2022/06/18 01:44:44;;;;;;;18.15;5.63;;;;;;;30.76;39.57;99406.19;5018360;28;20034;-85
2022/06/18 01:47:19;;;;;;;22.95;5.30;;;;;;;30.70;39.53;99400.59;5021119;28;20093;-86
2022/06/18 01:50:18;;;;;;;15.95;5.40;;;;;;;30.61;39.58;99386.19;5021195;28;20435;-85
2022/06/18 01:52:55;;;;;;;20.55;5.95;;;;;;;30.59;39.29;99393.59;5016355;28;20030;-85
2022/06/18 01:55:47;;;;;;;16.23;5.22;;;;;;;30.54;39.18;99388.66;5015940;28;20129;-85
2022/06/18 01:58:34;;;;;;;19.17;6.18;;;;;;;30.52;39.20;99394.22;5014815;28;20121;-86
2022/06/18 02:01:04;;;;;;;20.45;5.90;;;;;;;30.46;39.49;99394.84;5018044;28;20068;-85
2022/06/18 02:03:34;;;;;;;19.67;5.63;;;;;;;30.48;39.34;99381.22;5016868;28;20029;-85
2022/06/18 02:06:00;;;;;;;18.60;5.93;;;;;;;30.42;39.34;99382.72;5017206;28;20073;-85
2022/06/18 02:08:27;;;;;;;13.05;5.72;;;;;;;30.44;39.36;99386.09;5015779;28;20037;-86
2022/06/18 02:10:59;;;;;;;16.25;6.07;;;;;;;30.39;39.12;99383.88;5015846;28;20033;-85
2022/06/18 02:13:31;;;;;;;18.90;5.85;;;;;;;30.33;39.21;99381.81;5016972;28;20095;-85
2022/06/18 02:15:59;;;;;;;17.80;5.63;;;;;;;30.27;39.79;99385.13;5015491;28;20030;-85
2022/06/18 02:18:27;;;;;;;19.20;6.05;;;;;;;30.31;39.46;99380.28;5015706;28;20463;-85
2022/06/18 02:20:56;;;;;;;14.43;5.57;;;;;;;30.27;39.87;99385.97;5016439;28;20033;-84
2022/06/18 02:23:25;;;;;;;15.80;5.60;;;;;;;30.26;39.55;99383.44;5015315;28;20077;-86
2022/06/18 02:25:51;;;;;;;15.35;5.28;;;;;;;30.26;39.45;99384.28;5015495;28;20034;-85
2022/06/18 02:28:20;;;;;;;14.38;6.35;;;;;;;30.18;39.71;99384.22;5017059;28;20025;-87
2022/06/18 02:30:47;;;;;;;13.75;5.30;;;;;;;30.12;39.71;99380.31;5016143;28;20029;-84
2022/06/18 02:33:34;;;;;;;13.85;4.95;;;;;;;30.12;39.46;99371.41;5015599;28;20132;-86
2022/06/18 02:36:15;;;;;;;12.02;5.05;;;;;;;30.09;39.44;99369.88;5016856;28;20022;-85
2022/06/18 02:38:43;;;;;;;15.85;4.85;;;;;;;30.02;39.79;99371.47;5018115;28;20418;-87
2022/06/18 02:41:13;;;;;;;13.55;4.72;;;;;;;30.03;39.73;99373.16;5015425;28;20122;-85
2022/06/18 02:43:44;;;;;;;11.80;4.65;;;;;;;29.98;39.77;99370.91;5015380;28;20037;-85
2022/06/18 02:46:12;;;;;;;13.40;4.88;;;;;;;29.96;39.48;99367.53;5014944;28;20033;-86
2022/06/18 02:48:39;;;;;;;10.88;4.57;;;;;;;29.99;39.70;99361.88;5018073;28;20367;-84
2022/06/18 02:51:06;;;;;;;13.20;4.75;;;;;;;29.90;39.83;99362.78;5017434;28;20036;-88
2022/06/18 02:53:33;;;;;;;10.57;4.82;;;;;;;29.85;39.59;99365.94;5017599;28;20139;-86
2022/06/18 02:56:02;;;;;;;10.05;4.05;;;;;;;29.85;39.60;99359.72;5022051;28;20038;-87
2022/06/18 02:58:34;;;;;;;8.93;4.05;;;;;;;29.79;39.58;99360.31;5022899;28;20032;-86
2022/06/18 03:01:04;;;;;;;12.15;4.90;;;;;;;29.77;40.00;99356.97;5025623;28;20491;-85
2022/06/18 03:03:34;;;;;;;13.50;4.47;;;;;;;29.77;39.87;99352.41;5016085;28;20455;-84
2022/06/18 03:06:00;;;;;;;9.70;3.90;;;;;;;29.77;39.73;99348.91;5015112;28;20049;-85
2022/06/18 03:08:28;;;;;;;11.02;4.63;;;;;;;29.71;40.10;99353.88;5015708;28;20046;-85
2022/06/18 03:13:39;;;;;;;12.02;4.22;;;;;;;29.69;40.07;99347.78;5016409;28;20091;-86
2022/06/18 03:16:08;;;;;;;9.88;4.00;;;;;;;29.65;40.33;99343.75;4998421;28;20018;-85
2022/06/18 03:18:36;;;;;;;10.93;3.85;;;;;;;29.64;40.64;99344.75;5014382;28;20374;-85
2022/06/18 03:21:08;;;;;;;12.73;4.72;;;;;;;29.56;40.67;99340.13;5014736;28;20026;-85
2022/06/18 03:23:34;;;;;;;12.35;4.20;;;;;;;29.53;40.90;99350.34;5014266;28;20034;-86
2022/06/18 03:26:00;;;;;;;12.13;4.35;;;;;;;29.53;40.92;99344.97;5014694;28;20125;-87
2022/06/18 03:28:27;;;;;;;6.93;4.05;;;;;;;29.51;40.99;99347.81;5014637;28;20364;-88
2022/06/18 03:30:54;;;;;;;10.15;4.35;;;;;;;29.51;40.98;99346.94;5015477;28;20048;-85
2022/06/18 03:33:20;;;;;;;14.85;4.90;;;;;;;29.46;41.40;99350.06;5015795;28;20030;-88
2022/06/18 03:35:49;;;;;;;11.77;4.72;;;;;;;29.40;41.58;99351.53;5030645;28;20379;-87
2022/06/18 03:38:15;;;;;;;11.70;4.53;;;;;;;29.36;41.96;99347.47;5024293;28;20029;-85
2022/06/18 03:40:44;;;;;;;9.93;4.65;;;;;;;29.40;41.90;99346.16;5016785;28;20025;-87
2022/06/18 03:43:11;;;;;;;12.00;5.55;;;;;;;29.30;41.84;99356.13;5016107;28;20467;-87
2022/06/18 03:45:41;;;;;;;12.35;4.75;;;;;;;29.28;41.99;99347.34;5015016;28;20041;-87
2022/06/18 03:48:09;;;;;;;16.42;4.97;;;;;;;29.21;41.78;99345.28;5018322;28;20018;-87
2022/06/18 03:50:37;;;;;;;12.00;4.88;;;;;;;29.22;41.73;99343.44;5015532;28;20021;-85
2022/06/18 03:53:03;;;;;;;11.68;4.47;;;;;;;29.23;41.67;99344.31;5017925;28;20042;-87
2022/06/18 03:55:29;;;;;;;13.95;4.78;;;;;;;29.17;41.48;99346.59;5020135;28;20057;-87
2022/06/18 03:57:55;;;;;;;10.93;4.80;;;;;;;29.18;41.41;99337.53;5016362;28;20034;-87
2022/06/18 04:00:22;;;;;;;12.65;4.57;;;;;;;29.17;41.09;99335.84;5015088;28;20029;-85
2022/06/18 04:02:48;;;;;;;11.35;4.55;;;;;;;29.14;41.25;99330.75;5015078;28;20375;-85
2022/06/18 04:05:15;;;;;;;10.40;4.53;;;;;;;29.11;40.97;99331.06;5014223;28;20022;-85
2022/06/18 04:08:40;;;;;;;12.63;4.75;;;;;;;29.13;41.40;99334.44;5014062;28;20041;-85
2022/06/18 04:11:07;;;;;;;12.52;4.20;;;;;;;29.09;41.22;99327.69;5013882;28;20333;-84
2022/06/18 04:13:33;;;;;;;8.07;4.20;;;;;;;29.07;40.93;99335.91;5014132;28;20092;-85
2022/06/18 04:16:00;;;;;;;8.00;4.40;;;;;;;29.06;41.26;99338.75;5015064;28;20033;-85
2022/06/18 04:18:26;;;;;;;10.48;4.93;;;;;;;29.04;41.15;99332.66;5013919;28;20411;-85
2022/06/18 04:20:58;;;;;;;10.82;5.13;;;;;;;28.98;41.30;99335.94;5015991;28;20029;-85
2022/06/18 04:23:25;;;;;;;10.00;5.28;;;;;;;28.93;41.11;99331.88;5017732;28;20060;-85
2022/06/18 04:25:52;;;;;;;14.70;4.75;;;;;;;28.93;41.46;99331.03;5018332;28;20467;-87
2022/06/18 04:28:20;;;;;;;14.15;4.78;;;;;;;28.93;41.32;99334.56;5019294;28;20099;-85
2022/06/18 04:30:48;;;;;;;9.77;4.60;;;;;;;28.91;41.45;99330.34;5017937;28;20364;-84
2022/06/18 04:33:15;;;;;;;9.07;5.28;;;;;;;28.89;41.67;99335.84;5019132;28;20037;-87
2022/06/18 04:35:43;;;;;;;12.30;4.70;;;;;;;28.85;41.58;99329.03;5018645;28;20048;-86
2022/06/18 04:38:12;;;;;;;13.02;5.22;;;;;;;28.81;41.58;99330.34;5017846;28;20098;-87
2022/06/18 04:40:39;;;;;;;13.05;5.53;;;;;;;28.78;41.86;99330.63;5018723;28;20541;-88
2022/06/18 04:43:09;;;;;;;13.32;5.07;;;;;;;28.77;41.36;99323.59;5018485;28;20404;-85
2022/06/18 04:45:37;;;;;;;13.98;5.18;;;;;;;28.74;41.59;99330.09;5018202;28;20022;-84
2022/06/18 04:48:06;;;;;;;12.90;5.38;;;;;;;28.74;41.88;99330.09;5018105;28;20128;-85
2022/06/18 04:50:40;;;;;;;13.07;4.90;;;;;;;28.71;41.77;99330.38;5018036;28;20570;-86
2022/06/18 04:53:08;;;;;;;10.80;5.00;;;;;;;28.72;41.78;99331.22;5020761;28;20073;-85
2022/06/18 04:55:35;;;;;;;10.93;4.95;;;;;;;28.64;41.72;99327.47;5020665;28;20109;-86
2022/06/18 04:58:02;;;;;;;13.60;4.57;;;;;;;28.65;41.53;99326.47;5020235;28;20034;-84
2022/06/18 05:00:28;;;;;;;9.73;5.03;;;;;;;28.59;41.63;99326.19;5022287;28;20037;-84
2022/06/18 05:02:57;;;;;;;11.65;4.70;;;;;;;28.52;41.87;99326.78;5024204;28;20022;-86
2022/06/18 05:05:26;;;;;;;10.52;5.10;;;;;;;28.55;41.67;99325.63;5024805;28;20040;-85
2022/06/18 05:07:53;;;;;;;14.65;4.95;;;;;;;28.54;42.22;99323.94;5019447;28;20490;-87
2022/06/18 05:10:21;;;;;;;10.35;4.72;;;;;;;28.53;41.91;99316.91;5023148;28;20076;-88
2022/06/18 05:12:50;;;;;;;16.23;4.95;;;;;;;28.59;41.93;99321.69;5022408;28;20402;-88
2022/06/18 05:15:17;;;;;;;13.57;4.60;;;;;;;28.64;42.05;99318.53;5020125;28;20037;-86
2022/06/18 05:17:46;;;;;;;11.43;4.88;;;;;;;28.67;42.06;99321.78;5018143;28;20036;-87
2022/06/18 05:20:19;;;;;;;13.60;4.88;;;;;;;28.73;41.70;99322.19;5017872;28;20040;-86
2022/06/18 05:22:49;;;;;;;10.02;5.28;;;;;;;28.78;41.69;99317.22;5019239;28;20025;-87
2022/06/18 05:25:20;;;;;;;11.30;4.55;;;;;;;28.81;41.68;99311.56;5022233;28;20112;-87
2022/06/18 05:27:48;;;;;;;11.48;5.30;;;;;;;28.84;41.62;99313.94;5021951;28;20030;-87
2022/06/18 05:30:21;;;;;;;13.00;4.35;;;;;;;28.87;41.45;99311.00;5024131;28;20060;-90
2022/06/18 05:32:53;;;;;;;9.77;4.40;;;;;;;28.91;41.71;99314.22;5023417;28;20512;-88
2022/06/18 05:35:28;;;;;;;11.75;4.70;;;;;;;28.94;41.68;99314.75;5038427;28;20032;-88
2022/06/18 05:37:54;;;;;;;11.73;4.88;;;;;;;28.97;41.67;99315.44;5033357;28;20029;-86
2022/06/18 05:40:22;;;;;;;8.85;4.18;;;;;;;28.99;41.59;99317.00;5036877;28;20029;-87
2022/06/18 05:42:49;;;;;;;8.85;4.10;;;;;;;29.03;41.52;99321.06;5019651;28;20029;-86
2022/06/18 05:45:18;;;;;;;11.35;4.93;;;;;;;29.06;41.20;99314.56;5021020;28;20033;-85
2022/06/18 05:47:50;;;;;;;11.40;4.60;;;;;;;29.10;41.31;99315.09;5021780;28;20030;-86
2022/06/18 05:50:19;;;;;;;8.13;4.43;;;;;;;29.13;41.09;99317.47;5017181;28;20025;-86
2022/06/18 05:53:07;;;;;;;8.77;4.97;;;;;;;29.16;41.26;99312.66;5022907;28;20462;-87
2022/06/18 05:55:37;;;;;;;9.45;4.30;;;;;;;29.17;41.13;99314.34;5010339;28;20040;-87
2022/06/18 05:58:04;;;;;;;9.60;4.53;;;;;;;29.19;40.87;99312.34;5016691;28;20040;-88
2022/06/18 06:00:33;;;;;;;11.32;5.22;;;;;;;29.21;41.22;99315.72;5036843;28;20061;-87
2022/06/18 06:03:03;;;;;;;8.85;4.40;;;;;;;29.24;40.88;99316.44;5035239;28;20455;-85
2022/06/18 06:05:58;;;;;;;9.95;4.15;;;;;;;29.27;40.97;99313.44;5011823;28;20053;-86
2022/06/18 06:08:30;;;;;;;8.90;4.53;;;;;;;29.31;40.84;99310.31;5031558;28;20018;-86
2022/06/18 06:13:50;;;;;;;8.27;3.83;;;;;;;29.37;40.89;99307.97;5041698;28;20099;-87
2022/06/18 06:16:20;;;;;;;8.00;4.15;;;;;;;29.39;40.74;99306.81;5020520;28;20033;-87
2022/06/18 06:18:48;;;;;;;8.75;4.63;;;;;;;29.42;40.95;99295.78;5019010;28;20021;-87
2022/06/18 06:21:20;;;;;;;9.98;4.35;;;;;;;29.43;40.84;99302.84;5015478;28;20025;-87
2022/06/18 06:23:47;;;;;;;9.90;4.13;;;;;;;29.47;40.84;99306.06;5019251;28;20052;-86
2022/06/18 06:26:20;;;;;;;7.55;4.10;;;;;;;29.51;40.76;99306.63;5015523;28;20025;-86
2022/06/18 06:28:49;;;;;;;8.43;4.25;;;;;;;29.54;40.71;99298.28;5018710;28;20040;-87
2022/06/18 06:31:18;;;;;;;6.82;4.28;;;;;;;29.57;40.60;99300.63;5036249;28;20021;-86
2022/06/18 06:33:44;;;;;;;10.07;3.95;;;;;;;29.59;40.69;99301.34;5035709;28;20025;-86
2022/06/18 06:36:13;;;;;;;8.60;4.30;;;;;;;29.62;40.52;99298.34;5019512;28;20036;-85
2022/06/18 06:38:40;;;;;;;7.50;4.20;;;;;;;29.63;40.32;99297.34;5019335;28;20021;-85
2022/06/18 06:41:13;;;;;;;7.38;4.30;;;;;;;29.64;40.63;99299.03;5015387;28;20387;-86
2022/06/18 06:43:38;;;;;;;7.57;3.90;;;;;;;29.66;40.38;99296.19;5026471;28;20040;-86
2022/06/18 06:46:04;;;;;;;8.48;4.05;;;;;;;29.68;40.43;99294.19;5035087;28;20017;-87
2022/06/18 06:48:30;;;;;;;8.10;4.40;;;;;;;29.69;40.11;99295.88;5018997;28;20014;-86
2022/06/18 06:50:55;;;;;;;8.32;3.72;;;;;;;29.71;40.24;99293.88;5019714;28;20374;-88
2022/06/18 06:53:21;;;;;;;8.18;4.45;;;;;;;29.73;40.26;99299.97;5014025;28;20050;-88
2022/06/18 06:58:33;;;;;;;8.23;4.10;;;;;;;29.77;40.03;99300.50;5020708;28;20037;-89
2022/06/18 07:00:59;;;;;;;10.32;4.25;;;;;;;29.78;40.20;99294.09;5018164;28;20494;-87
2022/06/18 07:03:30;;;;;;;8.45;4.00;;;;;;;29.80;40.11;99292.09;5015811;28;20030;-89
2022/06/18 07:05:58;;;;;;;8.38;3.88;;;;;;;29.83;40.23;99289.09;5015438;28;20022;-88
2022/06/18 07:08:26;;;;;;;7.30;3.88;;;;;;;29.83;40.02;99291.78;5035091;28;20035;-87
2022/06/18 07:11:24;;;;;;;8.20;3.60;;;;;;;29.87;39.48;99293.16;5040405;28;20043;-87
2022/06/18 07:13:54;;;;;;;7.00;3.70;;;;;;;29.88;39.52;99290.31;5043244;28;20024;-88
2022/06/18 07:16:23;;;;;;;6.82;3.80;;;;;;;29.91;39.34;99283.78;5048082;28;20095;-87
2022/06/18 07:18:53;;;;;;;9.70;4.05;;;;;;;29.94;39.50;99286.16;5044976;28;20107;-88
2022/06/18 07:21:21;;;;;;;7.15;3.70;;;;;;;29.96;39.33;99284.16;5064346;28;20076;-88
2022/06/18 07:23:48;;;;;;;5.75;3.75;;;;;;;29.99;38.76;99280.31;5063538;28;20112;-83
2022/06/18 07:26:25;;;;;;;6.90;3.58;;;;;;;30.01;38.99;99284.53;5043006;28;20481;-89
2022/06/18 07:28:51;;;;;;;9.13;4.10;;;;;;;30.05;38.57;99278.81;5042639;28;20054;-89
2022/06/18 07:31:27;;;;;;;8.45;3.72;;;;;;;30.07;38.46;99276.84;5053975;28;20016;-91
2022/06/18 07:34:07;;;;;;;;;;;;;;;30.11;38.35;99272.88;5071405;28;20044;-87
2022/06/18 07:36:34;;;;;;;11.85;3.83;;;;;;;30.13;38.38;99282.44;5038420;28;19912;-87
2022/06/18 07:39:01;;;;;;;8.27;3.70;;;;;;;30.16;38.27;99283.16;5039007;28;20442;-86
2022/06/18 07:42:01;;;;;;;8.73;3.63;;;;;;;30.19;38.28;99280.97;5038823;28;20075;-87
2022/06/18 07:47:50;;;;;;;7.20;3.35;;;;;;;30.24;37.65;99273.28;5058093;28;20086;-91
2022/06/18 07:50:18;;;;;;;7.93;3.92;;;;;;;30.26;37.09;99265.88;5041671;28;20455;-86
2022/06/18 07:52:47;;;;;;;7.50;3.08;;;;;;;30.28;37.11;99263.84;5042260;28;20405;-87
2022/06/18 07:55:27;;;;;;;9.45;3.35;;;;;;;30.31;37.12;99261.88;5040267;28;20059;-88
2022/06/18 07:57:54;;;;;;;7.95;2.92;;;;;;;30.34;37.34;99257.00;5045186;28;20029;-89
2022/06/18 08:00:23;;;;;;;6.93;2.95;;;;;;;30.37;36.96;99256.66;5042650;28;20087;-88
2022/06/18 08:02:50;;;;;;;5.05;2.70;;;;;;;30.39;37.30;99264.59;5049379;28;20040;-89
2022/06/18 08:05:27;;;;;;;7.30;3.33;;;;;;;30.43;37.18;99260.56;5047244;28;20060;-88
2022/06/18 08:07:53;;;;;;;6.72;3.10;;;;;;;30.44;37.30;99256.88;5040338;28;20036;-86
2022/06/18 08:10:20;;;;;;;6.20;3.08;;;;;;;30.46;37.35;99249.47;5038656;28;20017;-86
2022/06/18 08:12:47;;;;;;;5.75;2.90;;;;;;;30.49;37.52;99243.78;5038839;28;20028;-86
2022/06/18 08:15:13;;;;;;;4.30;2.53;;;;;;;30.51;37.73;99246.31;5038361;28;20458;-88
2022/06/18 08:17:39;;;;;;;6.60;2.75;;;;;;;30.54;37.58;99240.59;5042826;28;20036;-88
2022/06/18 08:20:08;;;;;;;5.68;2.60;;;;;;;30.55;37.55;99237.75;5041007;28;20016;-86
2022/06/18 08:22:36;;;;;;;7.00;2.70;;;;;;;30.59;37.40;99232.06;5044425;28;20028;-89
2022/06/18 08:25:03;;;;;;;6.03;2.95;;;;;;;30.61;37.05;99241.66;5041150;28;20017;-87
2022/06/18 08:27:30;;;;;;;5.10;2.70;;;;;;;30.63;37.27;99233.38;5038664;28;20032;-88
2022/06/18 08:29:57;;;;;;;4.85;2.72;;;;;;;30.65;37.23;99226.84;5044821;28;20417;-87
2022/06/18 08:32:24;;;;;;;5.85;2.60;;;;;;;30.68;37.32;99231.06;5040481;28;20025;-87
2022/06/18 08:34:50;;;;;;;6.05;2.70;;;;;;;30.69;36.83;99219.31;5042364;28;20025;-86
2022/06/18 08:37:19;;;;;;;5.72;2.42;;;;;;;30.71;36.95;99230.78;5038491;28;20036;-88
2022/06/18 08:39:45;;;;;;;5.60;2.80;;;;;;;30.74;36.70;99219.66;5038309;28;20095;-87
2022/06/18 08:42:43;;;;;;;5.38;2.50;;;;;;;30.77;37.06;99223.88;5038783;28;20067;-88
2022/06/18 08:45:32;;;;;;;4.97;2.40;;;;;;;30.80;36.80;99228.94;5039242;28;20028;-89
2022/06/18 08:48:19;;;;;;;6.60;2.58;;;;;;;30.83;36.45;99230.47;5037963;28;20021;-89
2022/06/18 08:50:57;;;;;;;5.47;2.40;;;;;;;30.84;36.74;99224.91;5037927;28;20029;-87
2022/06/18 08:53:44;;;;;;;4.57;2.20;;;;;;;30.87;36.54;99223.72;5037551;28;20124;-89
2022/06/18 08:56:46;;;;;;;6.95;2.70;;;;;;;30.90;36.41;99223.41;5038520;28;20462;-90
2022/06/18 08:59:46;;;;;;;4.50;2.50;;;;;;;30.92;36.69;99224.94;5030847;28;20025;-86
2022/06/18 09:02:24;;;;;;;5.63;2.60;;;;;;;30.93;36.41;99214.97;5037650;28;20546;-87
2022/06/18 09:05:19;;;;;;;5.45;2.55;;;;;;;30.97;36.80;99213.66;5038155;28;20488;-89
2022/06/18 09:07:54;;;;;;;5.40;2.75;;;;;;;30.99;36.44;99216.19;5057620;28;20025;-87
2022/06/18 09:10:20;;;;;;;;;;;;;;;31.03;36.70;99212.97;5042117;28;20021;-86
2022/06/18 09:13:01;;;;;;;7.25;3.00;;;;;;;31.04;36.35;99203.88;5040247;28;20411;-87
2022/06/18 09:15:42;;;;;;;4.60;2.15;;;;;;;31.07;36.37;99208.09;5040535;28;20386;-86
2022/06/18 09:18:31;;;;;;;4.32;2.40;;;;;;;31.09;36.18;99211.50;5040534;28;20116;-88
2022/06/18 09:21:00;;;;;;;5.35;2.40;;;;;;;31.13;36.61;99218.22;5040468;28;20029;-89
2022/06/18 09:23:28;;;;;;;6.00;2.50;;;;;;;31.13;36.29;99220.91;5057870;28;20116;-89
2022/06/18 09:25:56;;;;;;;5.72;2.70;;;;;;;31.15;36.78;99209.97;5045140;28;20062;-88
2022/06/18 09:28:35;;;;;;;7.22;2.78;;;;;;;31.18;36.35;99220.44;5062359;28;20033;-89
2022/06/18 09:31:08;;;;;;;6.60;2.58;;;;;;;31.20;36.35;99207.63;5078365;28;20036;-88
2022/06/18 09:33:42;;;;;;;7.75;2.78;;;;;;;31.23;36.28;99201.06;5062766;28;20016;-90
2022/06/18 09:36:20;;;;;;;6.43;2.47;;;;;;;31.24;36.75;99203.59;5049303;28;20067;-87
2022/06/18 09:38:51;;;;;;;5.72;2.70;;;;;;;31.26;36.24;99204.25;5041283;28;20033;-87
2022/06/18 09:41:29;;;;;;;7.32;2.53;;;;;;;31.28;36.39;99210.34;5058944;28;20029;-89
2022/06/18 09:44:10;;;;;;;4.35;2.42;;;;;;;31.31;36.12;99201.94;5061222;28;20040;-88
2022/06/18 09:46:54;;;;;;;5.00;2.97;;;;;;;31.33;36.17;99205.28;5058022;28;20049;-88
2022/06/18 09:49:20;;;;;;;5.13;3.05;;;;;;;31.37;36.22;99202.28;5039675;28;20119;-88
2022/06/18 09:52:14;;;;;;;8.63;2.65;;;;;;;31.40;36.13;99201.91;5040052;28;20029;-87
2022/06/18 09:54:51;;;;;;;7.38;3.03;;;;;;;31.42;35.78;99205.31;5037978;28;20544;-89
2022/06/18 09:57:21;;;;;;;11.15;3.20;;;;;;;31.45;35.97;99196.88;5040231;28;20032;-88
2022/06/18 10:00:09;;;;;;;10.35;3.30;;;;;;;31.45;35.98;99205.81;5041428;28;20518;-88
2022/06/18 10:02:41;;;;;;;9.32;3.00;;;;;;;31.47;36.24;99198.38;5039186;28;20036;-89
2022/06/18 10:08:08;;;;;;;6.50;3.10;;;;;;;31.53;35.77;99191.47;5057234;28;20044;-87
2022/06/18 10:10:35;;;;;;;7.55;3.25;;;;;;;31.55;36.01;99189.44;5039393;28;20450;-88
2022/06/18 10:13:01;;;;;;;7.85;3.08;;;;;;;31.58;35.93;99178.31;5039055;28;20071;-88
2022/06/18 10:15:28;;;;;;;5.97;2.90;;;;;;;31.59;36.06;99182.72;5056830;28;20100;-89
2022/06/18 10:18:12;;;;;;;6.80;3.00;;;;;;;31.61;36.13;99186.06;5039872;28;20024;-89
2022/06/18 10:20:41;;;;;;;6.45;3.00;;;;;;;31.63;35.59;99190.44;5039766;28;20039;-89
2022/06/18 10:23:29;;;;;;;7.70;3.15;;;;;;;31.66;36.00;99185.53;5039765;28;20035;-87
2022/06/18 10:26:14;;;;;;;9.20;3.50;;;;;;;31.67;35.65;99183.69;5040487;28;20021;-89
2022/06/18 10:29:09;;;;;;;6.38;2.88;;;;;;;31.69;35.66;99178.97;5058359;28;20458;-90
2022/06/18 10:32:10;;;;;;;9.13;3.97;;;;;;;31.72;36.13;99181.34;5039121;28;20088;-88
2022/06/18 10:34:55;;;;;;;8.25;3.60;;;;;;;31.75;35.84;99176.44;5008550;28;20489;-89
2022/06/18 10:37:42;;;;;;;8.52;3.53;;;;;;;31.77;35.58;99164.63;5058737;28;20032;-88
2022/06/18 10:40:35;;;;;;;8.32;3.60;;;;;;;31.81;35.60;99166.81;5038467;28;20021;-88
2022/06/18 10:43:24;;;;;;;10.55;4.07;;;;;;;31.82;35.68;99163.13;5038436;28;20040;-88
2022/06/18 10:45:59;;;;;;;11.20;3.53;;;;;;;31.85;35.60;99157.38;5038250;28;20025;-88
2022/06/18 10:48:28;;;;;;;10.82;3.97;;;;;;;31.87;35.52;99159.91;5055975;28;20028;-88
2022/06/18 10:50:57;;;;;;;8.30;3.90;;;;;;;31.88;35.45;99140.88;5038545;28;20025;-88
2022/06/18 10:53:26;;;;;;;10.18;3.80;;;;;;;31.93;35.62;99147.56;5056034;28;20045;-87
2022/06/18 10:56:13;;;;;;;8.05;3.67;;;;;;;31.94;35.76;99143.84;5038486;28;20029;-88
2022/06/18 10:59:00;;;;;;;11.27;4.38;;;;;;;31.97;35.80;99148.91;5040310;28;20028;-88
2022/06/18 11:01:31;;;;;;;7.57;3.60;;;;;;;32.00;35.88;99141.31;5039677;28;20033;-88
2022/06/18 11:04:22;;;;;;;10.35;4.28;;;;;;;32.03;35.86;99134.72;5040256;28;20466;-87
2022/06/18 11:06:53;;;;;;;12.23;3.83;;;;;;;32.05;35.86;99142.66;5055646;28;20029;-88
2022/06/18 11:09:25;;;;;;;12.43;4.45;;;;;;;32.07;35.81;99133.38;5055541;28;20048;-88
2022/06/18 11:12:01;;;;;;;6.32;3.58;;;;;;;32.09;35.57;99125.09;5055615;28;20112;-89
2022/06/18 11:14:27;;;;;;;9.57;3.70;;;;;;;32.11;35.74;99113.09;5037571;28;20079;-88
2022/06/18 11:16:55;;;;;;;8.20;3.72;;;;;;;32.12;35.73;99114.81;5037665;28;20106;-88
2022/06/18 11:19:35;;;;;;;9.18;3.88;;;;;;;32.14;35.81;99118.16;5055153;28;20090;-89
2022/06/18 11:22:18;;;;;;;8.65;3.90;;;;;;;32.17;35.82;99110.72;5038429;28;20044;-89
2022/06/18 11:24:45;;;;;;;11.13;4.05;;;;;;;32.19;35.83;99119.50;5049296;28;20032;-88
2022/06/18 11:27:14;;;;;;;8.88;4.10;;;;;;;32.21;35.96;99109.34;5054377;28;20116;-88
2022/06/18 11:29:49;;;;;;;8.15;4.13;;;;;;;32.23;36.04;99104.59;5056547;28;20028;-88
2022/06/18 11:32:30;;;;;;;10.85;4.25;;;;;;;32.25;36.02;99108.81;5037466;28;20036;-87
2022/06/18 11:35:13;;;;;;;9.57;4.40;;;;;;;32.29;36.00;99112.00;5038114;28;20058;-89
2022/06/18 11:37:39;;;;;;;10.48;4.10;;;;;;;32.31;35.75;99099.19;5043057;28;20025;-88
2022/06/18 11:40:09;;;;;;;9.57;4.10;;;;;;;32.32;35.87;99092.75;5045430;28;20031;-87
2022/06/18 11:42:41;;;;;;;7.82;4.00;;;;;;;32.35;35.99;99099.66;5045934;28;20029;-87
2022/06/18 11:45:06;;;;;;;10.00;4.22;;;;;;;32.37;35.88;99095.78;5041998;28;20052;-88
2022/06/18 11:47:49;;;;;;;8.57;3.80;;;;;;;32.40;36.13;99099.97;5037341;28;20079;-88
2022/06/18 11:50:33;;;;;;;7.07;3.63;;;;;;;32.42;36.08;99100.66;5037248;28;20021;-89
2022/06/18 11:53:21;;;;;;;8.07;3.78;;;;;;;32.44;36.10;99098.59;5037188;28;20108;-88
2022/06/18 11:55:51;;;;;;;7.68;4.00;;;;;;;32.46;36.04;99098.44;5055124;28;20459;-89
2022/06/18 11:58:56;;;;;;;8.25;4.38;;;;;;;32.49;36.21;99090.00;5038613;28;20021;-88
2022/06/18 12:01:32;;;;;;;6.65;3.85;;;;;;;32.51;36.36;99096.03;5037832;28;20033;-88
2022/06/18 12:04:12;;;;;;;11.30;4.35;;;;;;;32.53;36.48;99088.59;5037627;28;20021;-88
2022/06/18 12:06:51;;;;;;;9.23;4.22;;;;;;;32.54;36.23;99091.13;5037226;28;20064;-88
2022/06/18 12:09:17;;;;;;;11.25;4.60;;;;;;;32.58;36.42;99086.19;5037892;28;20032;-88
2022/06/18 12:12:02;;;;;;;7.78;4.32;;;;;;;32.59;36.24;99077.09;5055447;28;20150;-88
2022/06/18 12:14:42;;;;;;;8.65;4.32;;;;;;;32.60;36.34;99062.56;5037548;28;20028;-88